This is the latest recevied weather packets stored in our database for station/object SR5NLK-1. If no packets are shown the sender has not sent any weather packets the latest 10 day(s).
| Time | Temp. | Humidity | Pressure | Rain* | Wind** | Luminosity | Snow |
|---|---|---|---|---|---|---|---|
| 1787900996 | 22.78° C | 47% | 1065.8 hPa | 0 mm | - | - | - |
| 1787900697 | 22.78° C | 46% | 1062.7 hPa | 0 mm | - | - | - |
| 1787900397 | 23.33° C | 45% | 1065.8 hPa | 0 mm | - | - | - |
| 1787900097 | 24.44° C | 44% | 1047.4 hPa | 0 mm | - | - | - |
| 1787899797 | 25° C | 43% | 1062.7 hPa | 0 mm | - | - | - |
| 1787899497 | 25° C | 43% | 1072.1 hPa | 0 mm | - | - | - |
| 1787899197 | 25.56° C | 43% | 1059.5 hPa | 0 mm | - | - | - |
| 1787899016 | 25.56° C | 43% | 1055.3 hPa | 0 mm | - | - | - |
| 1787898957 | 25.56° C | 43% | 1059.5 hPa | 0 mm | - | - | - |
| 1787898952 | 25.56° C | 44% | 1053.2 hPa | 0 mm | - | - | - |
| 1787898947 | 25.56° C | 44% | 1002.5 hPa | 0 mm | - | - | - |
| 1787898897 | 25.56° C | 43% | 1059.5 hPa | 0 mm | - | - | - |
| 1787898597 | 25.56° C | 44% | 1053.2 hPa | 0 mm | - | - | - |
| 1787898297 | 25.56° C | 44% | 1002.5 hPa | 0 mm | - | - | - |
| 1787897997 | 25° C | 45% | 1031.8 hPa | 0 mm | - | - | - |
| 1787897697 | 25° C | 46% | 1087.8 hPa | 0 mm | - | - | - |
| 1787897397 | 24.44° C | 47% | 1033.4 hPa | 0 mm | - | - | - |
| 1787897183 | 24.44° C | 47% | 1067.1 hPa | 0 mm | - | - | - |
| 1787897129 | 24.44° C | 47% | 1067.1 hPa | 0 mm | - | - | - |
| 1787897097 | 24.44° C | 47% | 1067.1 hPa | 0 mm | - | - | - |
| 1787897040 | 17.78° C | 72% | 1047.6 hPa | 0 mm | - | - | - |
| 1787897036 | 24.44° C | 48% | 1070.3 hPa | 0 mm | - | - | - |
| 1787896594 | 16.67° C | 77% | 995.2 hPa | 0 mm | - | - | - |
| 1787896190 | 21.67° C | 56% | 1068.3 hPa | 0 mm | - | - | - |
| 1787895898 | 22.78° C | 52% | 1075.3 hPa | 0 mm | - | - | - |
* Rain latest hour (hover to see other rain measurements)
** Current wind speed in m/s (hover to see current wind gust speed)